createdAt,value
2023-03-03T00:00:53.402Z,18.40
2023-03-03T00:03:23.441Z,19.03
2023-03-03T00:05:53.366Z,18.17
2023-03-03T00:08:21.913Z,17.10
2023-03-03T00:10:49.599Z,16.97
2023-03-03T00:13:19.316Z,17.23
2023-03-03T00:15:47.743Z,15.60
2023-03-03T00:18:23.662Z,17.53
2023-03-03T00:20:55.150Z,16.10
2023-03-03T00:23:30.846Z,16.70
2023-03-03T00:25:59.450Z,16.80
2023-03-03T00:28:30.732Z,17.10
2023-03-03T00:31:00.023Z,17.03
2023-03-03T00:33:32.611Z,16.93
2023-03-03T00:36:31.624Z,17.67
2023-03-03T00:39:12.881Z,18.47
2023-03-03T00:41:40.963Z,16.53
2023-03-03T00:44:34.287Z,16.90
2023-03-03T00:47:13.507Z,16.00
2023-03-03T00:49:41.566Z,16.10
2023-03-03T00:52:17.185Z,16.60
2023-03-03T00:54:44.797Z,16.10
2023-03-03T00:57:13.610Z,17.37
2023-03-03T00:59:41.350Z,14.67
2023-03-03T01:02:08.854Z,16.50
2023-03-03T01:04:36.367Z,16.07
2023-03-03T01:07:04.246Z,16.27
2023-03-03T01:09:33.108Z,15.13
2023-03-03T01:12:00.795Z,18.00
2023-03-03T01:14:28.354Z,16.60
2023-03-03T01:16:55.911Z,17.50
2023-03-03T01:19:23.363Z,16.00
2023-03-03T01:21:52.258Z,18.90
2023-03-03T01:24:19.795Z,15.07
2023-03-03T01:26:48.629Z,16.80
2023-03-03T01:29:16.100Z,18.73
2023-03-03T01:31:43.603Z,15.90
2023-03-03T01:34:11.111Z,16.70
2023-03-03T01:36:38.664Z,16.67
2023-03-03T01:39:06.163Z,16.30
2023-03-03T01:41:34.253Z,15.93
2023-03-03T01:44:03.054Z,16.43
2023-03-03T01:46:46.178Z,17.97
2023-03-03T01:49:16.908Z,17.60
2023-03-03T01:51:50.062Z,15.47
2023-03-03T01:54:23.080Z,16.17
2023-03-03T01:56:52.911Z,17.40
2023-03-03T01:59:26.800Z,16.60
2023-03-03T02:01:54.625Z,17.20
2023-03-03T02:04:22.435Z,17.73
2023-03-03T02:06:55.662Z,17.90
2023-03-03T02:09:29.074Z,15.53
2023-03-03T02:12:00.951Z,17.30
2023-03-03T02:14:29.898Z,16.50
2023-03-03T02:16:58.081Z,17.60
2023-03-03T02:19:33.940Z,17.13
2023-03-03T02:22:03.143Z,18.77
2023-03-03T02:24:35.878Z,18.17
2023-03-03T02:27:04.881Z,16.63
2023-03-03T02:29:32.310Z,17.40
2023-03-03T02:31:59.989Z,17.70
2023-03-03T02:34:27.504Z,16.00
2023-03-03T02:36:55.074Z,17.17
2023-03-03T02:39:24.729Z,17.07
2023-03-03T02:41:56.669Z,17.43
2023-03-03T02:44:27.202Z,16.40
2023-03-03T02:46:56.104Z,16.63
2023-03-03T02:49:24.891Z,16.93
2023-03-03T02:51:52.455Z,18.30
2023-03-03T02:54:21.934Z,17.43
2023-03-03T02:56:49.819Z,16.90
2023-03-03T02:59:18.206Z,17.53
2023-03-03T03:01:47.989Z,18.33
2023-03-03T03:04:17.373Z,17.27
2023-03-03T03:06:45.937Z,18.33
2023-03-03T03:09:14.433Z,17.50
2023-03-03T03:11:42.772Z,17.93
2023-03-03T03:14:12.370Z,17.07
2023-03-03T03:16:40.514Z,18.60
2023-03-03T03:19:09.726Z,18.50
2023-03-03T03:21:37.286Z,17.30
2023-03-03T03:24:05.057Z,18.70
2023-03-03T03:26:32.487Z,20.20
2023-03-03T03:29:00.013Z,18.07
2023-03-03T03:31:27.485Z,17.63
2023-03-03T03:33:54.961Z,19.20
2023-03-03T03:36:23.839Z,16.93
2023-03-03T03:38:52.404Z,23.30
2023-03-03T03:41:19.876Z,17.93
2023-03-03T03:43:48.059Z,17.87
2023-03-03T03:46:15.628Z,18.03
2023-03-03T03:48:43.092Z,17.83
2023-03-03T03:51:11.954Z,19.83
2023-03-03T03:53:40.766Z,19.43
2023-03-03T03:56:08.989Z,17.37
2023-03-03T03:58:36.438Z,19.33
2023-03-03T04:01:05.279Z,18.83
2023-03-03T04:03:32.830Z,18.03
2023-03-03T04:06:00.392Z,17.43
2023-03-03T04:08:27.937Z,15.80
2023-03-03T04:10:56.788Z,14.83
2023-03-03T04:13:24.366Z,14.70
2023-03-03T04:15:51.882Z,15.33
2023-03-03T04:18:19.312Z,14.87
2023-03-03T04:20:46.943Z,15.73
2023-03-03T04:23:14.803Z,13.77
2023-03-03T04:25:42.330Z,16.23
2023-03-03T04:28:11.065Z,16.27
2023-03-03T04:30:38.517Z,15.63
2023-03-03T04:33:05.949Z,16.43
2023-03-03T04:35:33.421Z,16.73
2023-03-03T04:38:01.146Z,16.63
2023-03-03T04:40:28.881Z,16.47
2023-03-03T04:42:56.439Z,15.97
2023-03-03T04:45:25.190Z,16.87
2023-03-03T04:47:52.712Z,17.57
2023-03-03T04:50:20.835Z,16.83
2023-03-03T04:52:48.372Z,17.07
2023-03-03T04:55:16.714Z,16.73
2023-03-03T04:57:44.373Z,16.40
2023-03-03T05:00:14.038Z,16.93
2023-03-03T05:02:43.424Z,17.03
2023-03-03T05:05:11.633Z,16.83
2023-03-03T05:07:39.066Z,17.03
2023-03-03T05:10:07.929Z,17.87
2023-03-03T05:12:35.422Z,17.67
2023-03-03T05:15:02.896Z,18.47
2023-03-03T05:17:30.417Z,19.20
2023-03-03T05:19:59.251Z,18.07
2023-03-03T05:22:26.847Z,18.67
2023-03-03T05:24:54.263Z,18.47
2023-03-03T05:27:21.784Z,20.73
2023-03-03T05:29:49.289Z,20.17
2023-03-03T05:32:16.953Z,21.53
2023-03-03T05:34:44.504Z,20.53
2023-03-03T05:37:13.396Z,20.77
2023-03-03T05:39:40.982Z,22.13
2023-03-03T05:42:08.453Z,18.90
2023-03-03T05:44:35.934Z,19.37
2023-03-03T05:47:03.478Z,17.97
2023-03-03T05:49:30.938Z,20.90
2023-03-03T05:51:59.263Z,17.20
2023-03-03T05:54:28.106Z,16.10
2023-03-03T05:56:57.302Z,15.73
2023-03-03T05:59:25.310Z,14.73
2023-03-03T06:01:52.925Z,14.80
2023-03-03T06:04:20.411Z,15.93
2023-03-03T06:06:47.863Z,17.27
2023-03-03T06:09:15.696Z,15.17
2023-03-03T06:11:44.463Z,14.87
2023-03-03T06:14:11.937Z,12.10
2023-03-03T06:16:39.502Z,12.93
2023-03-03T06:19:07.086Z,13.23
2023-03-03T06:21:34.519Z,12.50
2023-03-03T06:24:02.024Z,14.17
2023-03-03T06:26:29.730Z,12.37
2023-03-03T06:28:58.558Z,12.23
2023-03-03T06:31:26.124Z,14.67
2023-03-03T06:33:53.706Z,15.00
2023-03-03T06:36:21.801Z,13.50
2023-03-03T06:38:49.253Z,13.80
2023-03-03T06:41:16.731Z,13.97
2023-03-03T06:43:44.219Z,14.63
2023-03-03T06:46:13.025Z,13.87
2023-03-03T06:48:40.781Z,15.17
2023-03-03T06:51:21.520Z,13.90
2023-03-03T06:53:50.000Z,15.57
2023-03-03T06:56:18.616Z,16.07
2023-03-03T06:58:46.168Z,15.67
2023-03-03T07:01:18.251Z,17.20
2023-03-03T07:03:46.635Z,17.60
2023-03-03T07:06:23.379Z,17.83
2023-03-03T07:08:51.147Z,17.03
2023-03-03T07:11:20.533Z,14.80
2023-03-03T07:13:50.094Z,15.50
2023-03-03T07:16:20.758Z,15.50
2023-03-03T07:18:52.058Z,16.33
2023-03-03T07:21:21.777Z,15.70
2023-03-03T07:23:51.013Z,15.00
2023-03-03T07:26:22.651Z,15.27
2023-03-03T07:28:54.739Z,16.37
2023-03-03T07:31:40.227Z,16.67
2023-03-03T07:34:20.855Z,15.70
2023-03-03T07:36:49.657Z,16.57
2023-03-03T07:39:29.339Z,16.60
2023-03-03T07:42:03.838Z,15.60
2023-03-03T07:44:36.002Z,15.57
2023-03-03T07:47:16.541Z,14.67
2023-03-03T07:49:44.012Z,15.60
2023-03-03T07:52:25.570Z,16.27
2023-03-03T07:54:54.269Z,14.93
2023-03-03T07:57:25.933Z,15.33
2023-03-03T07:59:55.838Z,12.50
2023-03-03T08:02:55.332Z,12.20
2023-03-03T08:05:31.296Z,13.10
2023-03-03T08:08:16.134Z,13.67
2023-03-03T08:10:47.770Z,14.33
2023-03-03T08:13:19.862Z,14.50
2023-03-03T08:15:49.944Z,15.80
2023-03-03T08:18:25.044Z,14.50
2023-03-03T08:20:55.451Z,15.37
2023-03-03T08:23:23.454Z,13.17
2023-03-03T08:25:52.469Z,17.17
2023-03-03T08:28:21.191Z,12.77
2023-03-03T08:30:49.179Z,14.20
2023-03-03T08:33:17.572Z,16.07
2023-03-03T08:35:46.735Z,14.13
2023-03-03T08:38:16.307Z,11.63
2023-03-03T08:40:44.583Z,11.63
2023-03-03T08:43:16.949Z,10.40
2023-03-03T08:45:45.979Z,12.03
2023-03-03T08:48:13.965Z,11.83
2023-03-03T08:50:42.089Z,11.87
2023-03-03T08:53:11.532Z,10.13
2023-03-03T08:55:39.189Z,9.43
2023-03-03T08:58:07.190Z,12.83
2023-03-03T09:00:35.542Z,11.80
2023-03-03T09:03:03.547Z,11.13
2023-03-03T09:05:31.778Z,11.17
2023-03-03T09:07:59.380Z,12.50
2023-03-03T09:10:31.817Z,17.87
2023-03-03T09:13:03.552Z,19.67
2023-03-03T09:15:33.545Z,23.37
2023-03-03T09:18:11.637Z,20.37
2023-03-03T09:20:41.392Z,16.70
2023-03-03T09:23:29.893Z,14.97
2023-03-03T09:26:00.114Z,16.47
2023-03-03T09:28:30.014Z,13.53
2023-03-03T09:31:00.527Z,13.10
2023-03-03T09:33:33.404Z,14.00
2023-03-03T09:36:07.034Z,12.20
2023-03-03T09:38:35.485Z,15.13
2023-03-03T09:41:33.063Z,14.37
2023-03-03T09:44:17.541Z,13.90
2023-03-03T09:46:57.884Z,19.70
2023-03-03T09:49:33.135Z,23.80
2023-03-03T09:52:23.674Z,15.27
2023-03-03T09:55:02.118Z,11.37
2023-03-03T09:58:04.450Z,17.00
2023-03-03T10:00:52.094Z,20.53
2023-03-03T10:03:54.695Z,16.33
2023-03-03T10:06:28.938Z,12.93
2023-03-03T10:09:10.062Z,11.63
2023-03-03T10:11:42.875Z,11.73
2023-03-03T10:14:30.615Z,11.50
2023-03-03T10:17:15.941Z,18.93
2023-03-03T10:19:58.353Z,17.80
2023-03-03T10:22:35.926Z,18.40
2023-03-03T10:25:15.068Z,20.07
2023-03-03T10:27:54.470Z,21.17
2023-03-03T10:30:39.867Z,22.37
2023-03-03T10:33:22.580Z,15.68
2023-03-03T10:36:18.892Z,15.07
2023-03-03T10:38:56.337Z,15.93
2023-03-03T10:41:44.636Z,18.07
2023-03-03T10:44:33.251Z,19.00
2023-03-03T10:47:22.510Z,17.20
2023-03-03T10:50:02.509Z,18.13
2023-03-03T10:52:38.785Z,17.70
2023-03-03T10:55:39.722Z,25.40
2023-03-03T10:58:20.517Z,24.07
2023-03-03T11:00:53.444Z,16.43
2023-03-03T11:03:50.866Z,15.97
2023-03-03T11:06:23.270Z,14.43
2023-03-03T11:08:54.837Z,15.33
2023-03-03T11:11:33.669Z,15.53
2023-03-03T11:14:07.264Z,14.57
2023-03-03T11:16:43.068Z,12.97
2023-03-03T11:19:30.162Z,16.10
2023-03-03T11:22:08.381Z,21.73
2023-03-03T11:24:51.107Z,18.03
2023-03-03T11:27:34.577Z,21.70
2023-03-03T11:30:17.795Z,20.20
2023-03-03T11:32:52.764Z,16.20
2023-03-03T11:35:26.046Z,16.57
2023-03-03T11:38:13.638Z,15.33
2023-03-03T11:40:48.539Z,17.37
2023-03-03T11:43:35.699Z,15.20
2023-03-03T11:46:08.844Z,16.70
2023-03-03T11:48:44.735Z,16.93
2023-03-03T11:51:16.864Z,15.73
2023-03-03T11:53:58.326Z,15.47
2023-03-03T11:56:28.964Z,14.00
2023-03-03T11:59:08.515Z,16.13
2023-03-03T12:01:43.713Z,19.10
2023-03-03T12:04:16.830Z,17.27
2023-03-03T12:07:12.862Z,26.23
2023-03-03T12:09:54.063Z,19.87
2023-03-03T12:12:24.892Z,23.70
2023-03-03T12:15:05.523Z,22.43
2023-03-03T12:17:52.075Z,22.80
2023-03-03T12:20:26.694Z,26.07
2023-03-03T12:23:08.966Z,22.27
2023-03-03T12:25:40.975Z,31.73
2023-03-03T12:28:12.838Z,33.27
2023-03-03T12:31:10.910Z,32.03
2023-03-03T12:33:53.031Z,25.23
2023-03-03T12:36:37.862Z,20.50
2023-03-03T12:39:13.533Z,26.83
2023-03-03T12:41:47.773Z,23.60
2023-03-03T12:44:21.966Z,19.10
2023-03-03T12:47:01.880Z,22.57
2023-03-03T12:49:43.443Z,22.97
2023-03-03T12:52:24.197Z,22.30
2023-03-03T12:55:05.014Z,22.40
2023-03-03T12:57:40.263Z,25.57
2023-03-03T13:00:28.744Z,23.70
2023-03-03T13:03:05.187Z,23.83
2023-03-03T13:05:45.910Z,19.93
2023-03-03T13:08:43.405Z,20.90
2023-03-03T13:11:28.530Z,20.80
2023-03-03T13:14:05.268Z,16.10
2023-03-03T13:16:41.587Z,16.40
2023-03-03T13:19:12.382Z,16.70
2023-03-03T13:21:47.148Z,17.60
2023-03-03T13:24:21.879Z,16.33
2023-03-03T13:26:55.402Z,17.20
2023-03-03T13:29:28.275Z,15.93
2023-03-03T13:31:58.108Z,21.27
2023-03-03T13:34:39.002Z,21.53
2023-03-03T13:37:13.472Z,20.87
2023-03-03T13:39:50.867Z,23.57
2023-03-03T13:42:25.529Z,21.67
2023-03-03T13:44:53.892Z,18.80
2023-03-03T13:47:29.729Z,18.37
2023-03-03T13:50:20.960Z,17.77
2023-03-03T13:53:02.340Z,17.97
2023-03-03T13:55:34.819Z,19.33
2023-03-03T13:58:13.208Z,20.83
2023-03-03T14:00:52.696Z,19.30
2023-03-03T14:03:52.512Z,16.77
2023-03-03T14:06:22.706Z,16.20
2023-03-03T14:09:23.542Z,15.20
2023-03-03T14:11:58.127Z,16.13
2023-03-03T14:14:38.922Z,16.30
2023-03-03T14:17:14.674Z,20.03
2023-03-03T14:19:45.717Z,16.47
2023-03-03T14:22:23.668Z,18.00
2023-03-03T14:25:00.507Z,17.07
2023-03-03T14:27:34.389Z,16.40
2023-03-03T14:30:26.975Z,15.60
2023-03-03T14:33:03.603Z,17.13
2023-03-03T14:35:34.383Z,15.63
2023-03-03T14:38:03.745Z,20.87
2023-03-03T14:40:33.447Z,18.43
2023-03-03T14:43:02.306Z,18.37
2023-03-03T14:45:40.781Z,22.37
2023-03-03T14:48:16.346Z,21.30
2023-03-03T14:50:49.852Z,18.97
2023-03-03T14:53:23.964Z,18.23
2023-03-03T14:55:53.346Z,17.60
2023-03-03T14:58:36.139Z,17.80
2023-03-03T15:01:16.595Z,18.50
2023-03-03T15:03:52.509Z,19.13
2023-03-03T15:06:32.760Z,17.60
2023-03-03T15:09:22.785Z,16.90
2023-03-03T15:11:53.259Z,16.43
2023-03-03T15:14:23.770Z,16.80
2023-03-03T15:16:52.827Z,17.63
2023-03-03T15:19:38.663Z,17.00
2023-03-03T15:22:16.047Z,15.77
2023-03-03T15:24:51.049Z,16.83
2023-03-03T15:27:25.776Z,15.77
2023-03-03T15:30:05.050Z,14.87
2023-03-03T15:32:43.348Z,14.80
2023-03-03T15:35:26.011Z,15.73
2023-03-03T15:37:59.600Z,14.50
2023-03-03T15:40:30.381Z,13.67
2023-03-03T15:43:10.348Z,14.57
2023-03-03T15:45:46.079Z,14.93
2023-03-03T15:48:34.974Z,14.60
2023-03-03T15:51:11.042Z,14.50
2023-03-03T15:54:02.455Z,13.80
2023-03-03T15:56:38.132Z,14.43
2023-03-03T15:59:30.686Z,14.43
2023-03-03T16:02:09.230Z,13.97
2023-03-03T16:04:45.054Z,14.37
2023-03-03T16:07:24.458Z,15.00
2023-03-03T16:10:00.839Z,14.40
2023-03-03T16:12:40.574Z,15.57
2023-03-03T16:15:22.940Z,14.30
2023-03-03T16:17:58.878Z,14.00
2023-03-03T16:20:34.283Z,15.17
2023-03-03T16:23:28.407Z,14.00
2023-03-03T16:26:05.501Z,14.87
2023-03-03T16:28:44.405Z,15.17
2023-03-03T16:31:18.148Z,14.53
2023-03-03T16:33:56.892Z,13.83
2023-03-03T16:36:33.210Z,15.73
2023-03-03T16:39:06.139Z,16.23
2023-03-03T16:41:44.227Z,15.30
2023-03-03T16:44:31.207Z,16.50
2023-03-03T16:47:11.854Z,15.00
2023-03-03T16:49:49.822Z,15.43
2023-03-03T16:52:25.476Z,16.30
2023-03-03T16:54:58.212Z,15.87
2023-03-03T16:57:34.098Z,16.20
2023-03-03T17:00:08.954Z,14.90
2023-03-03T17:02:50.065Z,16.27
2023-03-03T17:05:27.311Z,16.77
2023-03-03T17:08:08.528Z,17.20
2023-03-03T17:10:43.029Z,14.40
2023-03-03T17:13:30.051Z,16.37
2023-03-03T17:16:14.223Z,15.83
2023-03-03T17:18:53.524Z,16.93
2023-03-03T17:21:28.898Z,16.27
2023-03-03T17:24:07.257Z,17.57
2023-03-03T17:26:51.354Z,16.00
2023-03-03T17:29:46.672Z,17.67
2023-03-03T17:32:28.898Z,18.77
2023-03-03T17:35:15.483Z,21.23
2023-03-03T17:37:51.299Z,18.07
2023-03-03T17:40:36.939Z,16.57
2023-03-03T17:43:10.206Z,17.53
2023-03-03T17:45:42.283Z,18.53
2023-03-03T17:48:53.927Z,17.81
2023-03-03T17:51:37.297Z,18.00
2023-03-03T17:54:29.092Z,16.93
2023-03-03T17:57:15.111Z,18.37
2023-03-03T17:59:56.919Z,15.47
2023-03-03T18:02:46.426Z,15.97
2023-03-03T18:05:46.385Z,16.73
2023-03-03T18:08:28.956Z,16.83
2023-03-03T18:11:11.425Z,17.33
2023-03-03T18:14:04.616Z,16.33
2023-03-03T18:16:47.769Z,34.37
2023-03-03T18:19:46.533Z,19.07
2023-03-03T18:22:19.570Z,17.20
2023-03-03T18:24:56.981Z,16.93
2023-03-03T18:27:34.293Z,16.50
2023-03-03T18:30:25.161Z,14.93
2023-03-03T18:33:12.708Z,26.10
2023-03-03T18:35:44.099Z,31.03
2023-03-03T18:38:30.287Z,18.63
2023-03-03T18:40:59.920Z,19.43
2023-03-03T18:43:52.102Z,18.37
2023-03-03T18:46:50.376Z,24.83
2023-03-03T18:49:18.477Z,18.80
2023-03-03T18:51:53.416Z,18.23
2023-03-03T18:54:31.287Z,21.00
2023-03-03T18:57:17.723Z,19.73
2023-03-03T19:00:10.763Z,19.90
2023-03-03T19:02:49.673Z,32.03
2023-03-03T19:05:24.295Z,20.23
2023-03-03T19:07:57.542Z,19.47
2023-03-03T19:10:48.893Z,19.73
2023-03-03T19:13:53.057Z,20.60
2023-03-03T19:16:36.864Z,23.33
2023-03-03T19:19:14.961Z,15.50
2023-03-03T19:21:43.792Z,50.00
2023-03-03T19:24:34.569Z,30.53
2023-03-03T19:27:16.252Z,26.03
2023-03-03T19:30:22.822Z,35.87
2023-03-03T19:33:10.020Z,25.90
2023-03-03T19:35:54.595Z,42.20
2023-03-03T19:38:32.301Z,54.23
2023-03-03T19:41:08.954Z,34.90
2023-03-03T19:43:47.062Z,29.27
2023-03-03T19:46:41.405Z,64.33
2023-03-03T19:49:18.209Z,21.93
2023-03-03T19:51:53.427Z,22.63
2023-03-03T19:54:37.332Z,20.07
2023-03-03T19:57:12.321Z,24.63
2023-03-03T19:59:46.528Z,16.17
2023-03-03T20:02:31.525Z,18.73
2023-03-03T20:05:08.099Z,23.73
2023-03-03T20:07:45.320Z,22.63
2023-03-03T20:10:32.839Z,18.27
2023-03-03T20:13:12.075Z,20.33
2023-03-03T20:15:48.333Z,17.67
2023-03-03T20:18:35.000Z,16.87
2023-03-03T20:21:09.059Z,15.97
2023-03-03T20:23:51.023Z,19.23
2023-03-03T20:26:27.209Z,14.70
2023-03-03T20:29:15.785Z,13.90
2023-03-03T20:31:50.972Z,11.73
2023-03-03T20:34:28.599Z,10.30
2023-03-03T20:37:01.435Z,15.80
2023-03-03T20:39:41.440Z,9.67
2023-03-03T20:42:19.243Z,10.03
2023-03-03T20:45:01.771Z,10.50
2023-03-03T20:47:39.241Z,10.20
2023-03-03T20:50:16.810Z,9.20
2023-03-03T20:52:55.812Z,9.57
2023-03-03T20:55:35.005Z,9.20
2023-03-03T20:58:08.430Z,9.87
2023-03-03T21:00:44.365Z,12.13
2023-03-03T21:03:19.407Z,13.37
2023-03-03T21:05:58.926Z,12.57
2023-03-03T21:08:48.385Z,13.90
2023-03-03T21:11:19.079Z,12.67
2023-03-03T21:13:48.062Z,12.87
2023-03-03T21:16:31.213Z,13.20
2023-03-03T21:19:00.200Z,11.73
2023-03-03T21:21:30.045Z,13.23
2023-03-03T21:23:59.074Z,14.03
2023-03-03T21:26:51.871Z,13.07
2023-03-03T21:29:21.104Z,13.13
2023-03-03T21:31:49.994Z,12.63
2023-03-03T21:34:25.793Z,13.07
2023-03-03T21:36:54.131Z,13.43
2023-03-03T21:39:24.972Z,14.47
2023-03-03T21:41:56.281Z,14.43
2023-03-03T21:44:41.490Z,14.07
2023-03-03T21:47:10.686Z,13.30
2023-03-03T21:49:42.461Z,14.67
2023-03-03T21:52:10.400Z,14.30
2023-03-03T21:54:37.888Z,13.40
2023-03-03T21:57:06.690Z,14.13
2023-03-03T21:59:34.163Z,13.87
2023-03-03T22:02:01.729Z,8.03
2023-03-03T22:04:29.656Z,8.47
2023-03-03T22:06:57.553Z,9.77
2023-03-03T22:09:25.035Z,11.23
2023-03-03T22:11:52.505Z,11.13
2023-03-03T22:14:21.306Z,11.33
2023-03-03T22:16:48.740Z,9.60
2023-03-03T22:19:16.356Z,10.20
2023-03-03T22:21:43.797Z,9.53
2023-03-03T22:24:11.255Z,10.17
2023-03-03T22:26:38.719Z,9.60
2023-03-03T22:29:06.600Z,9.10
2023-03-03T22:31:35.589Z,11.40
2023-03-03T22:34:03.271Z,11.27
2023-03-03T22:36:31.265Z,9.97
2023-03-03T22:38:58.947Z,8.73
2023-03-03T22:41:26.464Z,10.53
2023-03-03T22:43:53.888Z,9.17
2023-03-03T22:46:21.426Z,14.80
2023-03-03T22:48:50.371Z,17.53
2023-03-03T22:51:21.987Z,19.90
2023-03-03T22:53:49.535Z,20.77
2023-03-03T22:56:16.964Z,26.40
2023-03-03T22:58:44.411Z,20.90
2023-03-03T23:01:11.905Z,23.47
2023-03-03T23:03:39.474Z,25.43
2023-03-03T23:06:08.680Z,27.83
2023-03-03T23:08:36.097Z,32.80
2023-03-03T23:11:03.774Z,22.17
2023-03-03T23:13:31.782Z,23.20
2023-03-03T23:16:00.321Z,23.57
2023-03-03T23:18:28.411Z,27.03
2023-03-03T23:20:56.179Z,32.03
2023-03-03T23:23:25.312Z,27.63
2023-03-03T23:25:52.761Z,21.37
2023-03-03T23:28:20.238Z,27.57
2023-03-03T23:30:47.654Z,29.03
2023-03-03T23:33:15.274Z,23.63
2023-03-03T23:35:45.127Z,28.27
2023-03-03T23:38:15.430Z,24.93
2023-03-03T23:40:46.576Z,25.87
2023-03-03T23:43:14.123Z,30.87
2023-03-03T23:45:41.766Z,28.00
2023-03-03T23:48:09.759Z,26.37
2023-03-03T23:50:38.013Z,25.37
2023-03-03T23:53:05.607Z,27.77
2023-03-03T23:55:33.107Z,25.33
2023-03-03T23:58:01.985Z,32.57
